メインページ
METAR-TAF:

METAR-TAF

空港 :

ルアンダ, アンゴラ

クアトロ・デ・フェベレイロ空港

緯度: 08-51S, 経度: 013-14E, 海抜: 74m

現時点の気象観測

当レポートは3時間35分前の22:00(UTC)に作成
の風 6kt
気温 27°C
湿度 79%
気圧 1011 hPa
視程10km以上
高度2200ftの雲はほとんどない

METAR: FNLU 172200Z 19006KT 9999 FEW022 27/23 Q1011

時間: 02:35 (01:35 UTC)

予報

当レポートは2時間50分前の22:45(UTC)に作成
予報は18日の 00時(UTC)から 19日の 06時(UTC)まで有効
変向風 3kt
視程10km以上
高度2000ftの雲はほとんどない
18日の 03時(UTC)から 18日の 12時(UTC)まで一時的に
視程: 8000m
高度1800ftの雲はほとんどない
高度2000ftの千切れ雲あり
18日の 12時(UTC)から 18日の 14時(UTC)まで徐々に
西の風 10kt
視程10km以上
高度2200ftの雲は散在している
高度5000ftの千切れ雲あり
18日の 20時(UTC)から 18日の 22時(UTC)まで徐々に
の風 8kt
19日の 00時(UTC)から 19日の 06時(UTC)まで一時的に
視程: 7000m
高度1500ftの雲は散在している
高度2000ftの千切れ雲あり
小雨

TAF: FNLU 172245Z 1800/1906 VRB03KT 9999 FEW020 TEMPO 1803/1812 8000 FEW018 BKN020 BECMG 1812/1814 28010KT 9999 SCT022 BKN050 BECMG 1820/1822 19008KT TEMPO 1900/1906 7000 -RA SCT015 BKN020

4,000以上の空港の気象観測と天気予報(METAR報とTAF報)

利用可能な観測所は地図上に黄色い丸と赤い丸で示す。

丸の上にカーソルを重ねると観測所名を参照できる。

次にクリックすると気象観測と天気予報を参照できる。

マップの切り替え:黒色「×」印の緑ボタンをクリックして拡大、「-」印の緑ボタンをクリックして縮小、緑色の三角印をクリックして隣りの地図に切り替え


METAR-TAF: